TMS weather

São Tomé International Airport
São Tomé, São Tomé, São Tomé and Principe

Public forecast

Using degrees Celsius for public forecast. Weather courtesy of forecast.io.

Current aviation weather report (METAR) for São Tomé International Airport

Report is more than 6 hours old.

Retrieved 2020/08/05 19:00 UTC (6 hours ago):

FPST 051900Z 18006KT 9999 FEW020 25/22 Q1015 NOSIG

Aviation forecast (TAF) for São Tomé International Airport

Retrieved 2020-08-06 00:19 UTC (1 hour ago):

TAF FPST 052200Z 0600/0706 25004KT 9999 FEW025 SCT040 BECMG 0603/0607 BKN040 BECMG FEW020 SCT030